sensor_id;sensor_type;location;lat;lon;timestamp;temperature;humidity
21193;DHT22;10754;51.106;7.164;2022-08-07T00:00:34;19.90;99.90
21193;DHT22;10754;51.106;7.164;2022-08-07T00:03:00;19.80;99.90
21193;DHT22;10754;51.106;7.164;2022-08-07T00:05:26;19.80;99.90
21193;DHT22;10754;51.106;7.164;2022-08-07T00:07:52;19.80;99.90
21193;DHT22;10754;51.106;7.164;2022-08-07T00:10:19;19.90;99.90
21193;DHT22;10754;51.106;7.164;2022-08-07T00:12:45;19.80;99.90
21193;DHT22;10754;51.106;7.164;2022-08-07T00:15:11;19.80;99.90
21193;DHT22;10754;51.106;7.164;2022-08-07T00:17:36;19.80;99.90
21193;DHT22;10754;51.106;7.164;2022-08-07T00:20:03;19.80;99.90
21193;DHT22;10754;51.106;7.164;2022-08-07T00:22:29;19.80;99.90
21193;DHT22;10754;51.106;7.164;2022-08-07T00:24:55;19.80;99.90
21193;DHT22;10754;51.106;7.164;2022-08-07T00:27:20;19.80;99.90
21193;DHT22;10754;51.106;7.164;2022-08-07T00:29:46;19.80;99.90
21193;DHT22;10754;51.106;7.164;2022-08-07T00:32:11;19.80;99.90
21193;DHT22;10754;51.106;7.164;2022-08-07T00:34:38;19.80;99.90
21193;DHT22;10754;51.106;7.164;2022-08-07T00:37:04;19.80;99.90
21193;DHT22;10754;51.106;7.164;2022-08-07T00:39:30;19.80;99.90
21193;DHT22;10754;51.106;7.164;2022-08-07T00:41:57;19.80;99.90
21193;DHT22;10754;51.106;7.164;2022-08-07T00:44:23;19.80;99.90
21193;DHT22;10754;51.106;7.164;2022-08-07T00:46:49;19.80;99.90
21193;DHT22;10754;51.106;7.164;2022-08-07T00:49:15;19.80;99.90
21193;DHT22;10754;51.106;7.164;2022-08-07T00:51:41;19.80;99.90
21193;DHT22;10754;51.106;7.164;2022-08-07T00:54:06;19.80;99.90
21193;DHT22;10754;51.106;7.164;2022-08-07T00:56:32;19.80;99.90
21193;DHT22;10754;51.106;7.164;2022-08-07T00:58:59;19.70;99.90
21193;DHT22;10754;51.106;7.164;2022-08-07T01:01:24;19.70;99.90
21193;DHT22;10754;51.106;7.164;2022-08-07T01:03:50;19.70;99.90
21193;DHT22;10754;51.106;7.164;2022-08-07T01:06:17;19.70;99.90
21193;DHT22;10754;51.106;7.164;2022-08-07T01:08:43;19.60;99.90
21193;DHT22;10754;51.106;7.164;2022-08-07T01:11:10;19.70;99.90
21193;DHT22;10754;51.106;7.164;2022-08-07T01:13:35;19.70;99.90
21193;DHT22;10754;51.106;7.164;2022-08-07T01:16:01;19.60;99.90
21193;DHT22;10754;51.106;7.164;2022-08-07T01:18:28;19.70;99.90
21193;DHT22;10754;51.106;7.164;2022-08-07T01:21:20;19.60;99.90
21193;DHT22;10754;51.106;7.164;2022-08-07T01:23:49;19.70;99.90
21193;DHT22;10754;51.106;7.164;2022-08-07T01:26:16;19.60;99.90
21193;DHT22;10754;51.106;7.164;2022-08-07T01:28:43;19.50;99.90
21193;DHT22;10754;51.106;7.164;2022-08-07T01:31:09;19.50;99.90
21193;DHT22;10754;51.106;7.164;2022-08-07T01:33:35;19.50;99.90
21193;DHT22;10754;51.106;7.164;2022-08-07T01:36:02;19.50;99.90
21193;DHT22;10754;51.106;7.164;2022-08-07T01:38:29;19.50;99.90
21193;DHT22;10754;51.106;7.164;2022-08-07T01:41:00;19.50;99.90
21193;DHT22;10754;51.106;7.164;2022-08-07T01:43:27;19.50;99.90
21193;DHT22;10754;51.106;7.164;2022-08-07T01:45:54;19.50;99.90
21193;DHT22;10754;51.106;7.164;2022-08-07T01:48:20;19.40;99.90
21193;DHT22;10754;51.106;7.164;2022-08-07T01:50:49;19.40;99.90
21193;DHT22;10754;51.106;7.164;2022-08-07T01:53:18;19.40;99.90
21193;DHT22;10754;51.106;7.164;2022-08-07T01:55:49;19.40;99.90
21193;DHT22;10754;51.106;7.164;2022-08-07T01:58:19;19.40;99.90
21193;DHT22;10754;51.106;7.164;2022-08-07T02:00:50;19.40;99.90
21193;DHT22;10754;51.106;7.164;2022-08-07T02:03:19;19.30;99.90
21193;DHT22;10754;51.106;7.164;2022-08-07T02:06:01;19.30;99.90
21193;DHT22;10754;51.106;7.164;2022-08-07T02:08:29;19.30;99.90
21193;DHT22;10754;51.106;7.164;2022-08-07T02:11:00;19.30;99.90
21193;DHT22;10754;51.106;7.164;2022-08-07T02:13:28;19.30;99.90
21193;DHT22;10754;51.106;7.164;2022-08-07T02:15:58;19.20;99.90
21193;DHT22;10754;51.106;7.164;2022-08-07T02:18:26;19.20;99.90
21193;DHT22;10754;51.106;7.164;2022-08-07T02:20:55;19.20;99.90
21193;DHT22;10754;51.106;7.164;2022-08-07T02:23:22;19.20;99.90
21193;DHT22;10754;51.106;7.164;2022-08-07T02:25:51;19.20;99.90
21193;DHT22;10754;51.106;7.164;2022-08-07T02:28:18;19.20;99.90
21193;DHT22;10754;51.106;7.164;2022-08-07T02:30:45;19.20;99.90
21193;DHT22;10754;51.106;7.164;2022-08-07T02:33:13;19.20;99.90
21193;DHT22;10754;51.106;7.164;2022-08-07T02:35:40;19.20;99.90
21193;DHT22;10754;51.106;7.164;2022-08-07T02:38:07;19.20;99.90
21193;DHT22;10754;51.106;7.164;2022-08-07T02:40:33;19.10;99.90
21193;DHT22;10754;51.106;7.164;2022-08-07T02:43:00;19.10;99.90
21193;DHT22;10754;51.106;7.164;2022-08-07T02:45:29;19.00;99.90
21193;DHT22;10754;51.106;7.164;2022-08-07T02:47:55;19.00;99.90
21193;DHT22;10754;51.106;7.164;2022-08-07T02:50:21;19.00;99.90
21193;DHT22;10754;51.106;7.164;2022-08-07T02:53:03;19.00;99.90
21193;DHT22;10754;51.106;7.164;2022-08-07T02:55:30;19.00;99.90
21193;DHT22;10754;51.106;7.164;2022-08-07T02:58:02;18.90;99.90
21193;DHT22;10754;51.106;7.164;2022-08-07T03:00:29;18.80;99.90
21193;DHT22;10754;51.106;7.164;2022-08-07T03:02:57;18.70;99.90
21193;DHT22;10754;51.106;7.164;2022-08-07T03:05:23;18.80;99.90
21193;DHT22;10754;51.106;7.164;2022-08-07T03:07:49;18.70;99.90
21193;DHT22;10754;51.106;7.164;2022-08-07T03:10:15;18.70;99.90
21193;DHT22;10754;51.106;7.164;2022-08-07T03:12:44;18.70;99.90
21193;DHT22;10754;51.106;7.164;2022-08-07T03:15:11;18.70;99.90
21193;DHT22;10754;51.106;7.164;2022-08-07T03:17:36;18.60;99.90
21193;DHT22;10754;51.106;7.164;2022-08-07T03:20:03;18.50;99.90
21193;DHT22;10754;51.106;7.164;2022-08-07T03:22:30;18.60;99.90
21193;DHT22;10754;51.106;7.164;2022-08-07T03:24:56;18.60;99.90
21193;DHT22;10754;51.106;7.164;2022-08-07T03:27:24;18.50;99.90
21193;DHT22;10754;51.106;7.164;2022-08-07T03:29:51;18.50;99.90
21193;DHT22;10754;51.106;7.164;2022-08-07T03:32:41;18.50;99.90
21193;DHT22;10754;51.106;7.164;2022-08-07T03:35:11;18.40;99.90
21193;DHT22;10754;51.106;7.164;2022-08-07T03:37:38;18.40;99.90
21193;DHT22;10754;51.106;7.164;2022-08-07T03:40:06;18.30;99.90
21193;DHT22;10754;51.106;7.164;2022-08-07T03:42:33;18.30;99.90
21193;DHT22;10754;51.106;7.164;2022-08-07T03:45:00;18.30;99.90
21193;DHT22;10754;51.106;7.164;2022-08-07T03:47:26;18.30;99.90
21193;DHT22;10754;51.106;7.164;2022-08-07T03:49:53;18.20;99.90
21193;DHT22;10754;51.106;7.164;2022-08-07T03:52:24;18.30;99.90
21193;DHT22;10754;51.106;7.164;2022-08-07T03:54:50;18.30;99.90
21193;DHT22;10754;51.106;7.164;2022-08-07T03:57:16;18.20;99.90
21193;DHT22;10754;51.106;7.164;2022-08-07T03:59:42;18.20;99.90
21193;DHT22;10754;51.106;7.164;2022-08-07T04:02:08;18.10;99.90
21193;DHT22;10754;51.106;7.164;2022-08-07T04:04:34;18.10;99.90
21193;DHT22;10754;51.106;7.164;2022-08-07T04:07:00;18.10;99.90
21193;DHT22;10754;51.106;7.164;2022-08-07T04:09:27;18.10;99.90
21193;DHT22;10754;51.106;7.164;2022-08-07T04:11:54;18.10;99.90
21193;DHT22;10754;51.106;7.164;2022-08-07T04:14:20;18.10;99.90
21193;DHT22;10754;51.106;7.164;2022-08-07T04:16:47;18.10;99.90
21193;DHT22;10754;51.106;7.164;2022-08-07T04:19:13;18.10;99.90
21193;DHT22;10754;51.106;7.164;2022-08-07T04:21:39;18.00;99.90
21193;DHT22;10754;51.106;7.164;2022-08-07T04:24:06;17.90;99.90
21193;DHT22;10754;51.106;7.164;2022-08-07T04:26:35;17.90;99.90
21193;DHT22;10754;51.106;7.164;2022-08-07T04:29:01;17.90;99.90
21193;DHT22;10754;51.106;7.164;2022-08-07T04:31:28;17.90;99.90
21193;DHT22;10754;51.106;7.164;2022-08-07T04:33:54;17.90;99.90
21193;DHT22;10754;51.106;7.164;2022-08-07T04:36:19;17.90;99.90
21193;DHT22;10754;51.106;7.164;2022-08-07T04:38:45;17.90;99.90
21193;DHT22;10754;51.106;7.164;2022-08-07T04:41:10;17.90;99.90
21193;DHT22;10754;51.106;7.164;2022-08-07T04:43:38;17.90;99.90
21193;DHT22;10754;51.106;7.164;2022-08-07T04:46:10;17.90;99.90
21193;DHT22;10754;51.106;7.164;2022-08-07T04:48:58;17.80;99.90
21193;DHT22;10754;51.106;7.164;2022-08-07T04:51:43;17.80;99.90
21193;DHT22;10754;51.106;7.164;2022-08-07T04:56:46;17.80;99.90
21193;DHT22;10754;51.106;7.164;2022-08-07T04:59:20;17.80;99.90
21193;DHT22;10754;51.106;7.164;2022-08-07T05:04:32;17.80;99.90
21193;DHT22;10754;51.106;7.164;2022-08-07T05:10:39;17.70;99.90
21193;DHT22;10754;51.106;7.164;2022-08-07T05:13:10;17.70;99.90
21193;DHT22;10754;51.106;7.164;2022-08-07T05:15:41;17.70;99.90
21193;DHT22;10754;51.106;7.164;2022-08-07T05:18:18;17.70;99.90
21193;DHT22;10754;51.106;7.164;2022-08-07T05:20:51;17.80;99.90
21193;DHT22;10754;51.106;7.164;2022-08-07T05:23:39;17.70;99.90
21193;DHT22;10754;51.106;7.164;2022-08-07T05:26:10;17.70;99.90
21193;DHT22;10754;51.106;7.164;2022-08-07T05:28:37;17.70;99.90
21193;DHT22;10754;51.106;7.164;2022-08-07T05:31:04;17.60;1.00
21193;DHT22;10754;51.106;7.164;2022-08-07T05:33:30;17.60;1.40
21193;DHT22;10754;51.106;7.164;2022-08-07T05:35:58;17.70;1.00
21193;DHT22;10754;51.106;7.164;2022-08-07T05:38:24;17.70;1.00
21193;DHT22;10754;51.106;7.164;2022-08-07T05:40:51;17.80;1.00
21193;DHT22;10754;51.106;7.164;2022-08-07T05:43:17;17.70;1.00
21193;DHT22;10754;51.106;7.164;2022-08-07T05:45:43;17.70;1.00
21193;DHT22;10754;51.106;7.164;2022-08-07T05:48:09;17.70;1.00
21193;DHT22;10754;51.106;7.164;2022-08-07T05:50:35;17.80;1.00
21193;DHT22;10754;51.106;7.164;2022-08-07T05:53:02;17.80;1.00
21193;DHT22;10754;51.106;7.164;2022-08-07T05:55:28;17.90;1.00
21193;DHT22;10754;51.106;7.164;2022-08-07T05:57:55;17.90;1.00
21193;DHT22;10754;51.106;7.164;2022-08-07T06:00:23;17.90;1.00
21193;DHT22;10754;51.106;7.164;2022-08-07T06:02:50;17.90;1.00
21193;DHT22;10754;51.106;7.164;2022-08-07T06:05:22;17.90;1.00
21193;DHT22;10754;51.106;7.164;2022-08-07T06:07:50;18.00;1.00
21193;DHT22;10754;51.106;7.164;2022-08-07T06:10:17;18.00;1.00
21193;DHT22;10754;51.106;7.164;2022-08-07T06:12:42;18.00;1.00
21193;DHT22;10754;51.106;7.164;2022-08-07T06:15:11;18.10;1.00
21193;DHT22;10754;51.106;7.164;2022-08-07T06:17:38;18.20;1.00
21193;DHT22;10754;51.106;7.164;2022-08-07T06:20:06;18.20;1.00
21193;DHT22;10754;51.106;7.164;2022-08-07T06:22:33;18.30;1.00
21193;DHT22;10754;51.106;7.164;2022-08-07T06:24:59;18.30;1.00
21193;DHT22;10754;51.106;7.164;2022-08-07T06:27:25;18.30;1.00
21193;DHT22;10754;51.106;7.164;2022-08-07T06:29:51;18.30;1.00
21193;DHT22;10754;51.106;7.164;2022-08-07T06:32:17;18.40;1.00
21193;DHT22;10754;51.106;7.164;2022-08-07T06:34:43;18.40;1.00
21193;DHT22;10754;51.106;7.164;2022-08-07T06:37:08;18.50;1.00
21193;DHT22;10754;51.106;7.164;2022-08-07T06:39:34;18.60;1.00
21193;DHT22;10754;51.106;7.164;2022-08-07T06:42:19;18.80;1.00
21193;DHT22;10754;51.106;7.164;2022-08-07T06:44:46;18.90;99.90
21193;DHT22;10754;51.106;7.164;2022-08-07T06:47:13;18.90;99.90
21193;DHT22;10754;51.106;7.164;2022-08-07T06:49:40;19.00;99.90
21193;DHT22;10754;51.106;7.164;2022-08-07T06:52:07;19.10;99.90
21193;DHT22;10754;51.106;7.164;2022-08-07T06:54:35;19.20;99.90
21193;DHT22;10754;51.106;7.164;2022-08-07T06:57:02;19.10;99.90
21193;DHT22;10754;51.106;7.164;2022-08-07T06:59:32;19.10;99.90
21193;DHT22;10754;51.106;7.164;2022-08-07T07:01:58;19.20;99.90
21193;DHT22;10754;51.106;7.164;2022-08-07T07:04:25;19.10;99.90
21193;DHT22;10754;51.106;7.164;2022-08-07T07:06:52;19.20;99.90
21193;DHT22;10754;51.106;7.164;2022-08-07T07:09:25;19.20;1.00
21193;DHT22;10754;51.106;7.164;2022-08-07T07:14:46;19.20;99.90
21193;DHT22;10754;51.106;7.164;2022-08-07T07:17:25;19.30;99.90
21193;DHT22;10754;51.106;7.164;2022-08-07T07:19:54;19.40;99.90
21193;DHT22;10754;51.106;7.164;2022-08-07T07:22:22;19.50;99.90
21193;DHT22;10754;51.106;7.164;2022-08-07T07:24:49;19.50;99.90
21193;DHT22;10754;51.106;7.164;2022-08-07T07:27:16;19.60;99.90
21193;DHT22;10754;51.106;7.164;2022-08-07T07:29:47;19.60;99.90
21193;DHT22;10754;51.106;7.164;2022-08-07T07:32:15;19.60;99.90
21193;DHT22;10754;51.106;7.164;2022-08-07T07:34:45;19.70;99.90
21193;DHT22;10754;51.106;7.164;2022-08-07T07:37:12;19.80;99.90
21193;DHT22;10754;51.106;7.164;2022-08-07T07:39:39;19.90;99.90
21193;DHT22;10754;51.106;7.164;2022-08-07T07:42:08;20.00;99.90
21193;DHT22;10754;51.106;7.164;2022-08-07T07:44:39;20.00;99.90
21193;DHT22;10754;51.106;7.164;2022-08-07T07:47:08;20.00;99.90
21193;DHT22;10754;51.106;7.164;2022-08-07T07:49:35;20.00;99.90
21193;DHT22;10754;51.106;7.164;2022-08-07T07:52:02;20.10;99.90
21193;DHT22;10754;51.106;7.164;2022-08-07T07:54:29;20.10;99.90
21193;DHT22;10754;51.106;7.164;2022-08-07T07:56:56;20.10;99.90
21193;DHT22;10754;51.106;7.164;2022-08-07T07:59:23;20.20;99.90
21193;DHT22;10754;51.106;7.164;2022-08-07T08:01:50;20.30;99.90
21193;DHT22;10754;51.106;7.164;2022-08-07T08:04:17;20.40;99.90
21193;DHT22;10754;51.106;7.164;2022-08-07T08:06:44;20.40;99.90
21193;DHT22;10754;51.106;7.164;2022-08-07T08:09:12;20.30;99.90
21193;DHT22;10754;51.106;7.164;2022-08-07T08:11:38;20.40;99.90
21193;DHT22;10754;51.106;7.164;2022-08-07T08:14:04;20.60;99.90
21193;DHT22;10754;51.106;7.164;2022-08-07T08:16:42;20.60;99.90
21193;DHT22;10754;51.106;7.164;2022-08-07T08:19:12;20.80;99.90
21193;DHT22;10754;51.106;7.164;2022-08-07T08:21:43;20.90;99.90
21193;DHT22;10754;51.106;7.164;2022-08-07T08:24:31;20.80;99.90
21193;DHT22;10754;51.106;7.164;2022-08-07T08:27:21;20.70;99.90
21193;DHT22;10754;51.106;7.164;2022-08-07T08:29:56;20.80;99.90
21193;DHT22;10754;51.106;7.164;2022-08-07T08:32:26;20.70;99.90
21193;DHT22;10754;51.106;7.164;2022-08-07T08:34:56;20.80;99.90
21193;DHT22;10754;51.106;7.164;2022-08-07T08:37:25;20.90;99.90
21193;DHT22;10754;51.106;7.164;2022-08-07T08:39:53;21.00;99.90
21193;DHT22;10754;51.106;7.164;2022-08-07T08:42:26;20.90;99.90
21193;DHT22;10754;51.106;7.164;2022-08-07T08:45:13;20.90;99.90
21193;DHT22;10754;51.106;7.164;2022-08-07T08:50:49;21.20;99.90
21193;DHT22;10754;51.106;7.164;2022-08-07T08:56:14;21.40;99.90
21193;DHT22;10754;51.106;7.164;2022-08-07T08:58:53;21.40;99.90
21193;DHT22;10754;51.106;7.164;2022-08-07T09:01:26;21.50;99.90
21193;DHT22;10754;51.106;7.164;2022-08-07T09:04:17;21.40;99.90
21193;DHT22;10754;51.106;7.164;2022-08-07T09:07:05;21.40;99.90
21193;DHT22;10754;51.106;7.164;2022-08-07T09:12:47;21.40;99.90
21193;DHT22;10754;51.106;7.164;2022-08-07T09:15:31;21.60;99.90
21193;DHT22;10754;51.106;7.164;2022-08-07T09:26:43;21.70;99.90
21193;DHT22;10754;51.106;7.164;2022-08-07T09:29:44;21.70;99.90
21193;DHT22;10754;51.106;7.164;2022-08-07T09:41:15;21.80;99.90
21193;DHT22;10754;51.106;7.164;2022-08-07T09:44:12;21.80;99.90
21193;DHT22;10754;51.106;7.164;2022-08-07T09:47:02;21.90;99.90
21193;DHT22;10754;51.106;7.164;2022-08-07T09:54:48;22.30;99.90
21193;DHT22;10754;51.106;7.164;2022-08-07T10:00:10;22.40;99.90
21193;DHT22;10754;51.106;7.164;2022-08-07T10:08:29;22.60;99.90
21193;DHT22;10754;51.106;7.164;2022-08-07T10:11:08;22.60;99.90
21193;DHT22;10754;51.106;7.164;2022-08-07T10:25:08;23.10;99.90
21193;DHT22;10754;51.106;7.164;2022-08-07T10:27:50;23.30;99.90
21193;DHT22;10754;51.106;7.164;2022-08-07T10:31:06;23.50;99.90
21193;DHT22;10754;51.106;7.164;2022-08-07T10:36:53;24.20;99.90
21193;DHT22;10754;51.106;7.164;2022-08-07T10:40:03;24.60;99.90
21193;DHT22;10754;51.106;7.164;2022-08-07T10:45:26;25.30;99.90
21193;DHT22;10754;51.106;7.164;2022-08-07T10:48:18;25.60;99.90
21193;DHT22;10754;51.106;7.164;2022-08-07T10:50:51;25.90;99.90
21193;DHT22;10754;51.106;7.164;2022-08-07T10:55:59;26.40;99.90
21193;DHT22;10754;51.106;7.164;2022-08-07T11:01:27;26.80;99.90
21193;DHT22;10754;51.106;7.164;2022-08-07T11:04:09;26.90;99.90
21193;DHT22;10754;51.106;7.164;2022-08-07T11:06:44;27.10;99.90
21193;DHT22;10754;51.106;7.164;2022-08-07T11:09:17;27.30;99.90
21193;DHT22;10754;51.106;7.164;2022-08-07T11:11:51;27.50;99.90
21193;DHT22;10754;51.106;7.164;2022-08-07T11:14:30;27.70;99.90
21193;DHT22;10754;51.106;7.164;2022-08-07T11:17:02;27.80;99.90
21193;DHT22;10754;51.106;7.164;2022-08-07T11:19:49;28.00;99.90
21193;DHT22;10754;51.106;7.164;2022-08-07T11:25:53;28.40;99.90
21193;DHT22;10754;51.106;7.164;2022-08-07T11:28:25;28.70;99.90
21193;DHT22;10754;51.106;7.164;2022-08-07T11:41:31;29.50;99.90
21193;DHT22;10754;51.106;7.164;2022-08-07T11:44:13;29.60;99.90
21193;DHT22;10754;51.106;7.164;2022-08-07T11:52:12;30.10;99.90
21193;DHT22;10754;51.106;7.164;2022-08-07T11:54:47;30.30;99.90
21193;DHT22;10754;51.106;7.164;2022-08-07T11:57:32;30.30;99.90
21193;DHT22;10754;51.106;7.164;2022-08-07T12:00:05;30.30;99.90
21193;DHT22;10754;51.106;7.164;2022-08-07T12:08:22;31.20;99.90
21193;DHT22;10754;51.106;7.164;2022-08-07T12:10:58;31.80;99.90
21193;DHT22;10754;51.106;7.164;2022-08-07T12:13:29;32.90;99.90
21193;DHT22;10754;51.106;7.164;2022-08-07T12:16:08;35.20;99.90
21193;DHT22;10754;51.106;7.164;2022-08-07T12:18:59;36.80;99.90
21193;DHT22;10754;51.106;7.164;2022-08-07T12:21:39;36.80;18.40
21193;DHT22;10754;51.106;7.164;2022-08-07T12:24:19;37.90;57.30
21193;DHT22;10754;51.106;7.164;2022-08-07T12:27:03;38.50;43.90
21193;DHT22;10754;51.106;7.164;2022-08-07T12:29:37;39.10;40.20
21193;DHT22;10754;51.106;7.164;2022-08-07T12:32:26;39.40;23.40
21193;DHT22;10754;51.106;7.164;2022-08-07T12:34:54;39.30;20.10
21193;DHT22;10754;51.106;7.164;2022-08-07T12:37:20;38.90;15.30
21193;DHT22;10754;51.106;7.164;2022-08-07T12:39:48;39.00;23.80
21193;DHT22;10754;51.106;7.164;2022-08-07T12:42:19;39.70;15.90
21193;DHT22;10754;51.106;7.164;2022-08-07T12:44:47;39.80;1.00
21193;DHT22;10754;51.106;7.164;2022-08-07T12:47:31;40.30;1.00
21193;DHT22;10754;51.106;7.164;2022-08-07T12:50:19;41.10;3.30
21193;DHT22;10754;51.106;7.164;2022-08-07T12:52:50;41.70;1.00
21193;DHT22;10754;51.106;7.164;2022-08-07T12:55:28;42.00;1.00
21193;DHT22;10754;51.106;7.164;2022-08-07T12:57:57;41.90;1.00
21193;DHT22;10754;51.106;7.164;2022-08-07T13:00:32;41.50;1.00
21193;DHT22;10754;51.106;7.164;2022-08-07T13:03:11;41.20;1.00
21193;DHT22;10754;51.106;7.164;2022-08-07T13:11:19;40.30;1.00
21193;DHT22;10754;51.106;7.164;2022-08-07T13:21:42;42.80;1.00
21193;DHT22;10754;51.106;7.164;2022-08-07T13:24:33;42.90;1.00
21193;DHT22;10754;51.106;7.164;2022-08-07T13:27:09;43.00;1.00
21193;DHT22;10754;51.106;7.164;2022-08-07T13:29:48;41.90;1.00
21193;DHT22;10754;51.106;7.164;2022-08-07T13:32:22;41.50;1.00
21193;DHT22;10754;51.106;7.164;2022-08-07T13:37:56;42.00;1.00
21193;DHT22;10754;51.106;7.164;2022-08-07T13:42:55;42.20;1.00
21193;DHT22;10754;51.106;7.164;2022-08-07T13:45:22;41.90;1.00
21193;DHT22;10754;51.106;7.164;2022-08-07T13:47:51;41.80;1.00
21193;DHT22;10754;51.106;7.164;2022-08-07T13:50:19;40.90;1.00
21193;DHT22;10754;51.106;7.164;2022-08-07T13:52:46;40.10;1.00
21193;DHT22;10754;51.106;7.164;2022-08-07T13:55:18;40.00;1.00
21193;DHT22;10754;51.106;7.164;2022-08-07T13:57:46;39.50;1.00
21193;DHT22;10754;51.106;7.164;2022-08-07T14:00:13;38.60;1.00
21193;DHT22;10754;51.106;7.164;2022-08-07T14:02:41;37.80;4.00
21193;DHT22;10754;51.106;7.164;2022-08-07T14:05:12;37.40;10.00
21193;DHT22;10754;51.106;7.164;2022-08-07T14:07:42;36.70;29.70
21193;DHT22;10754;51.106;7.164;2022-08-07T14:10:10;36.20;39.70
21193;DHT22;10754;51.106;7.164;2022-08-07T14:12:54;36.20;38.10
21193;DHT22;10754;51.106;7.164;2022-08-07T14:15:37;36.10;33.30
21193;DHT22;10754;51.106;7.164;2022-08-07T14:18:08;35.40;53.90
21193;DHT22;10754;51.106;7.164;2022-08-07T14:20:40;34.70;39.10
21193;DHT22;10754;51.106;7.164;2022-08-07T14:23:20;34.10;72.20
21193;DHT22;10754;51.106;7.164;2022-08-07T14:25:54;33.80;84.40
21193;DHT22;10754;51.106;7.164;2022-08-07T14:28:22;33.20;99.90
21193;DHT22;10754;51.106;7.164;2022-08-07T14:30:49;32.80;99.90
21193;DHT22;10754;51.106;7.164;2022-08-07T14:33:15;32.60;99.90
21193;DHT22;10754;51.106;7.164;2022-08-07T14:35:41;32.30;99.90
21193;DHT22;10754;51.106;7.164;2022-08-07T14:38:08;32.00;99.90
21193;DHT22;10754;51.106;7.164;2022-08-07T14:40:35;31.80;99.90
21193;DHT22;10754;51.106;7.164;2022-08-07T14:43:08;31.80;99.90
21193;DHT22;10754;51.106;7.164;2022-08-07T14:45:46;31.90;99.90
21193;DHT22;10754;51.106;7.164;2022-08-07T14:48:14;31.70;99.90
21193;DHT22;10754;51.106;7.164;2022-08-07T14:50:44;31.40;99.90
21193;DHT22;10754;51.106;7.164;2022-08-07T14:53:11;31.20;99.90
21193;DHT22;10754;51.106;7.164;2022-08-07T14:55:38;31.00;99.90
21193;DHT22;10754;51.106;7.164;2022-08-07T14:58:06;30.80;99.90
21193;DHT22;10754;51.106;7.164;2022-08-07T15:00:33;30.60;99.90
21193;DHT22;10754;51.106;7.164;2022-08-07T15:03:04;30.40;99.90
21193;DHT22;10754;51.106;7.164;2022-08-07T15:05:30;30.40;99.90
21193;DHT22;10754;51.106;7.164;2022-08-07T15:07:57;30.20;99.90
21193;DHT22;10754;51.106;7.164;2022-08-07T15:10:25;30.00;99.90
21193;DHT22;10754;51.106;7.164;2022-08-07T15:12:53;29.90;99.90
21193;DHT22;10754;51.106;7.164;2022-08-07T15:15:28;29.80;99.90
21193;DHT22;10754;51.106;7.164;2022-08-07T15:18:00;29.60;99.90
21193;DHT22;10754;51.106;7.164;2022-08-07T15:20:31;29.60;99.90
21193;DHT22;10754;51.106;7.164;2022-08-07T15:23:02;29.50;99.90
21193;DHT22;10754;51.106;7.164;2022-08-07T15:25:32;29.30;99.90
21193;DHT22;10754;51.106;7.164;2022-08-07T15:28:02;29.20;99.90
21193;DHT22;10754;51.106;7.164;2022-08-07T15:30:30;29.10;99.90
21193;DHT22;10754;51.106;7.164;2022-08-07T15:32:57;29.00;99.90
21193;DHT22;10754;51.106;7.164;2022-08-07T15:35:26;28.90;99.90
21193;DHT22;10754;51.106;7.164;2022-08-07T15:37:57;28.90;99.90
21193;DHT22;10754;51.106;7.164;2022-08-07T15:40:26;28.80;99.90
21193;DHT22;10754;51.106;7.164;2022-08-07T15:42:55;28.70;99.90
21193;DHT22;10754;51.106;7.164;2022-08-07T15:47:54;28.40;99.90
21193;DHT22;10754;51.106;7.164;2022-08-07T15:50:21;28.40;99.90
21193;DHT22;10754;51.106;7.164;2022-08-07T15:52:57;28.40;99.90
21193;DHT22;10754;51.106;7.164;2022-08-07T15:55:24;28.30;99.90
21193;DHT22;10754;51.106;7.164;2022-08-07T15:57:51;28.20;99.90
21193;DHT22;10754;51.106;7.164;2022-08-07T16:00:19;28.00;99.90
21193;DHT22;10754;51.106;7.164;2022-08-07T16:02:46;28.00;99.90
21193;DHT22;10754;51.106;7.164;2022-08-07T16:05:19;27.90;99.90
21193;DHT22;10754;51.106;7.164;2022-08-07T16:07:53;27.90;99.90
21193;DHT22;10754;51.106;7.164;2022-08-07T16:10:25;27.90;99.90
21193;DHT22;10754;51.106;7.164;2022-08-07T16:21:19;27.50;99.90
21193;DHT22;10754;51.106;7.164;2022-08-07T16:24:13;27.50;99.90
21193;DHT22;10754;51.106;7.164;2022-08-07T16:29:28;27.30;99.90
21193;DHT22;10754;51.106;7.164;2022-08-07T16:32:05;27.20;99.90
21193;DHT22;10754;51.106;7.164;2022-08-07T16:34:51;27.20;99.90
21193;DHT22;10754;51.106;7.164;2022-08-07T16:38:14;27.20;99.90
21193;DHT22;10754;51.106;7.164;2022-08-07T16:48:53;26.80;99.90
21193;DHT22;10754;51.106;7.164;2022-08-07T16:51:49;26.90;99.90
21193;DHT22;10754;51.106;7.164;2022-08-07T17:03:06;26.60;99.90
21193;DHT22;10754;51.106;7.164;2022-08-07T17:05:43;26.60;99.90
21193;DHT22;10754;51.106;7.164;2022-08-07T17:08:10;26.50;99.90
21193;DHT22;10754;51.106;7.164;2022-08-07T17:10:47;26.40;99.90
21193;DHT22;10754;51.106;7.164;2022-08-07T17:21:10;26.20;99.90
21193;DHT22;10754;51.106;7.164;2022-08-07T17:26:17;26.20;99.90
21193;DHT22;10754;51.106;7.164;2022-08-07T17:36:52;26.00;99.90
21193;DHT22;10754;51.106;7.164;2022-08-07T17:42:45;26.00;99.90
21193;DHT22;10754;51.106;7.164;2022-08-07T17:44:54;25.90;99.90
21193;DHT22;10754;51.106;7.164;2022-08-07T17:53:07;25.70;99.90
21193;DHT22;10754;51.106;7.164;2022-08-07T17:55:35;25.60;99.90
21193;DHT22;10754;51.106;7.164;2022-08-07T17:58:07;25.60;99.90
21193;DHT22;10754;51.106;7.164;2022-08-07T18:00:38;25.50;99.90
21193;DHT22;10754;51.106;7.164;2022-08-07T18:03:14;25.50;99.90
21193;DHT22;10754;51.106;7.164;2022-08-07T18:06:09;25.50;99.90
21193;DHT22;10754;51.106;7.164;2022-08-07T18:08:42;25.50;99.90
21193;DHT22;10754;51.106;7.164;2022-08-07T18:19:57;25.20;99.90
21193;DHT22;10754;51.106;7.164;2022-08-07T18:22:38;25.20;99.90
21193;DHT22;10754;51.106;7.164;2022-08-07T18:25:10;25.20;99.90
21193;DHT22;10754;51.106;7.164;2022-08-07T18:28:10;25.10;99.90
21193;DHT22;10754;51.106;7.164;2022-08-07T18:30:38;25.10;99.90
21193;DHT22;10754;51.106;7.164;2022-08-07T18:38:42;25.00;99.90
21193;DHT22;10754;51.106;7.164;2022-08-07T18:41:32;25.00;99.90
21193;DHT22;10754;51.106;7.164;2022-08-07T18:47:24;24.90;99.90
21193;DHT22;10754;51.106;7.164;2022-08-07T18:52:38;24.70;99.90
21193;DHT22;10754;51.106;7.164;2022-08-07T19:00:49;24.50;99.90
21193;DHT22;10754;51.106;7.164;2022-08-07T19:06:06;24.40;99.90
21193;DHT22;10754;51.106;7.164;2022-08-07T19:08:55;24.40;99.90
21193;DHT22;10754;51.106;7.164;2022-08-07T19:14:15;24.30;99.90
21193;DHT22;10754;51.106;7.164;2022-08-07T19:16:56;24.20;99.90
21193;DHT22;10754;51.106;7.164;2022-08-07T19:19:52;24.20;99.90
21193;DHT22;10754;51.106;7.164;2022-08-07T19:25:13;24.10;99.90
21193;DHT22;10754;51.106;7.164;2022-08-07T19:27:40;24.10;99.90
21193;DHT22;10754;51.106;7.164;2022-08-07T19:30:10;24.00;99.90